sensor_id;sensor_type;location;lat;lon;timestamp;pressure;altitude;pressure_sealevel;temperature;humidity
29433;BME280;16405;53.964;13.448;2022-07-29T00:00:23;101771.41;;;10.40;100.00
29433;BME280;16405;53.964;13.448;2022-07-29T00:02:49;101770.69;;;10.35;100.00
29433;BME280;16405;53.964;13.448;2022-07-29T00:05:14;101767.28;;;10.32;100.00
29433;BME280;16405;53.964;13.448;2022-07-29T00:07:40;101767.38;;;10.27;100.00
29433;BME280;16405;53.964;13.448;2022-07-29T00:10:11;101768.31;;;10.26;100.00
29433;BME280;16405;53.964;13.448;2022-07-29T00:12:37;101762.22;;;10.24;100.00
29433;BME280;16405;53.964;13.448;2022-07-29T00:15:03;101757.94;;;10.20;100.00
29433;BME280;16405;53.964;13.448;2022-07-29T00:17:29;101765.91;;;10.17;100.00
29433;BME280;16405;53.964;13.448;2022-07-29T00:19:55;101755.38;;;10.17;100.00
29433;BME280;16405;53.964;13.448;2022-07-29T00:22:21;101764.09;;;10.19;100.00
29433;BME280;16405;53.964;13.448;2022-07-29T00:24:54;101758.84;;;10.19;100.00
29433;BME280;16405;53.964;13.448;2022-07-29T00:27:20;101755.44;;;10.15;100.00
29433;BME280;16405;53.964;13.448;2022-07-29T00:29:48;101760.03;;;10.09;100.00
29433;BME280;16405;53.964;13.448;2022-07-29T00:32:14;101753.22;;;10.00;100.00
29433;BME280;16405;53.964;13.448;2022-07-29T00:34:47;101752.50;;;9.95;100.00
29433;BME280;16405;53.964;13.448;2022-07-29T00:37:32;101751.53;;;9.97;100.00
29433;BME280;16405;53.964;13.448;2022-07-29T00:40:06;101755.16;;;9.93;100.00
29433;BME280;16405;53.964;13.448;2022-07-29T00:42:53;101762.19;;;9.93;100.00
29433;BME280;16405;53.964;13.448;2022-07-29T00:45:24;101760.56;;;9.89;100.00
29433;BME280;16405;53.964;13.448;2022-07-29T00:47:50;101753.50;;;9.91;100.00
29433;BME280;16405;53.964;13.448;2022-07-29T00:50:16;101764.00;;;9.91;100.00
29433;BME280;16405;53.964;13.448;2022-07-29T00:52:43;101763.88;;;9.95;100.00
29433;BME280;16405;53.964;13.448;2022-07-29T00:55:15;101771.59;;;10.03;100.00
29433;BME280;16405;53.964;13.448;2022-07-29T00:57:43;101764.41;;;10.08;100.00
29433;BME280;16405;53.964;13.448;2022-07-29T01:00:20;101765.09;;;10.15;100.00
29433;BME280;16405;53.964;13.448;2022-07-29T01:02:47;101762.56;;;10.12;100.00
29433;BME280;16405;53.964;13.448;2022-07-29T01:05:24;101767.03;;;10.08;100.00
29433;BME280;16405;53.964;13.448;2022-07-29T01:07:53;101764.63;;;10.00;100.00
29433;BME280;16405;53.964;13.448;2022-07-29T01:10:21;101763.88;;;9.95;100.00
29433;BME280;16405;53.964;13.448;2022-07-29T01:12:57;101756.25;;;9.86;100.00
29433;BME280;16405;53.964;13.448;2022-07-29T01:15:24;101764.38;;;9.78;100.00
29433;BME280;16405;53.964;13.448;2022-07-29T01:18:21;101755.84;;;9.69;100.00
29433;BME280;16405;53.964;13.448;2022-07-29T01:29:43;101761.50;;;9.53;100.00
29433;BME280;16405;53.964;13.448;2022-07-29T01:32:17;101757.94;;;9.54;100.00
29433;BME280;16405;53.964;13.448;2022-07-29T01:35:06;101748.34;;;9.53;100.00
29433;BME280;16405;53.964;13.448;2022-07-29T01:38:25;101751.59;;;9.63;100.00
29433;BME280;16405;53.964;13.448;2022-07-29T01:41:08;101760.31;;;9.65;100.00
29433;BME280;16405;53.964;13.448;2022-07-29T01:44:07;101756.78;;;9.66;100.00
29433;BME280;16405;53.964;13.448;2022-07-29T01:46:42;101762.81;;;9.70;100.00
29433;BME280;16405;53.964;13.448;2022-07-29T01:49:14;101760.19;;;9.70;100.00
29433;BME280;16405;53.964;13.448;2022-07-29T01:52:11;101749.47;;;9.77;100.00
29433;BME280;16405;53.964;13.448;2022-07-29T01:54:52;101757.22;;;9.82;100.00
29433;BME280;16405;53.964;13.448;2022-07-29T01:57:30;101749.38;;;9.80;100.00
29433;BME280;16405;53.964;13.448;2022-07-29T02:00:01;101746.81;;;9.79;100.00
29433;BME280;16405;53.964;13.448;2022-07-29T02:02:30;101749.47;;;9.77;100.00
29433;BME280;16405;53.964;13.448;2022-07-29T02:04:58;101746.00;;;9.75;100.00
29433;BME280;16405;53.964;13.448;2022-07-29T02:07:29;101748.69;;;9.74;100.00
29433;BME280;16405;53.964;13.448;2022-07-29T02:09:57;101744.22;;;9.77;100.00
29433;BME280;16405;53.964;13.448;2022-07-29T02:12:24;101732.13;;;9.70;100.00
29433;BME280;16405;53.964;13.448;2022-07-29T02:14:53;101729.44;;;9.72;100.00
29433;BME280;16405;53.964;13.448;2022-07-29T02:17:29;101741.78;;;9.70;100.00
29433;BME280;16405;53.964;13.448;2022-07-29T02:20:06;101740.16;;;9.65;100.00
29433;BME280;16405;53.964;13.448;2022-07-29T02:22:37;101738.41;;;9.64;100.00
29433;BME280;16405;53.964;13.448;2022-07-29T02:25:12;101737.72;;;9.58;100.00
29433;BME280;16405;53.964;13.448;2022-07-29T02:27:40;101736.78;;;9.59;100.00
29433;BME280;16405;53.964;13.448;2022-07-29T02:30:08;101736.75;;;9.60;100.00
29433;BME280;16405;53.964;13.448;2022-07-29T02:32:39;101731.59;;;9.57;100.00
29433;BME280;16405;53.964;13.448;2022-07-29T02:35:08;101738.44;;;9.63;100.00
29433;BME280;16405;53.964;13.448;2022-07-29T02:37:44;101735.81;;;9.63;100.00
29433;BME280;16405;53.964;13.448;2022-07-29T02:40:12;101733.25;;;9.61;100.00
29433;BME280;16405;53.964;13.448;2022-07-29T02:42:44;101729.63;;;9.65;100.00
29433;BME280;16405;53.964;13.448;2022-07-29T02:45:11;101728.72;;;9.67;100.00
29433;BME280;16405;53.964;13.448;2022-07-29T02:47:43;101725.97;;;9.71;100.00
29433;BME280;16405;53.964;13.448;2022-07-29T02:50:24;101731.09;;;9.76;100.00
29433;BME280;16405;53.964;13.448;2022-07-29T02:53:09;101727.53;;;9.78;100.00
29433;BME280;16405;53.964;13.448;2022-07-29T02:58:27;101720.53;;;9.77;100.00
29433;BME280;16405;53.964;13.448;2022-07-29T03:01:02;101719.69;;;9.77;100.00
29433;BME280;16405;53.964;13.448;2022-07-29T03:03:32;101723.19;;;9.76;100.00
29433;BME280;16405;53.964;13.448;2022-07-29T03:06:01;101715.31;;;9.76;100.00
29433;BME280;16405;53.964;13.448;2022-07-29T03:08:28;101714.59;;;9.71;100.00
29433;BME280;16405;53.964;13.448;2022-07-29T03:11:01;101715.41;;;9.73;100.00
29433;BME280;16405;53.964;13.448;2022-07-29T03:13:27;101712.66;;;9.77;100.00
29433;BME280;16405;53.964;13.448;2022-07-29T03:15:55;101712.50;;;9.82;100.00
29433;BME280;16405;53.964;13.448;2022-07-29T03:18:25;101712.44;;;9.85;100.00
29433;BME280;16405;53.964;13.448;2022-07-29T03:20:54;101703.50;;;9.91;100.00
29433;BME280;16405;53.964;13.448;2022-07-29T03:23:22;101707.75;;;9.96;100.00
29433;BME280;16405;53.964;13.448;2022-07-29T03:25:58;101711.13;;;10.00;100.00
29433;BME280;16405;53.964;13.448;2022-07-29T03:28:24;101703.94;;;10.06;100.00
29433;BME280;16405;53.964;13.448;2022-07-29T03:30:53;101703.63;;;10.17;100.00
29433;BME280;16405;53.964;13.448;2022-07-29T03:33:18;101711.41;;;10.22;100.00
29433;BME280;16405;53.964;13.448;2022-07-29T03:35:44;101713.88;;;10.26;100.00
29433;BME280;16405;53.964;13.448;2022-07-29T03:38:13;101710.22;;;10.32;100.00
29433;BME280;16405;53.964;13.448;2022-07-29T03:40:51;101717.81;;;10.43;100.00
29433;BME280;16405;53.964;13.448;2022-07-29T03:43:22;101708.66;;;10.56;100.00
29433;BME280;16405;53.964;13.448;2022-07-29T03:45:52;101702.13;;;10.68;100.00
29433;BME280;16405;53.964;13.448;2022-07-29T03:48:24;101704.41;;;10.79;100.00
29433;BME280;16405;53.964;13.448;2022-07-29T03:50:51;101699.81;;;10.85;100.00
29433;BME280;16405;53.964;13.448;2022-07-29T03:53:17;101709.22;;;10.93;100.00
29433;BME280;16405;53.964;13.448;2022-07-29T03:55:47;101705.44;;;11.01;100.00
29433;BME280;16405;53.964;13.448;2022-07-29T03:58:14;101703.31;;;11.13;100.00
29433;BME280;16405;53.964;13.448;2022-07-29T04:00:42;101704.63;;;11.26;100.00
29433;BME280;16405;53.964;13.448;2022-07-29T04:03:09;101711.25;;;11.38;100.00
29433;BME280;16405;53.964;13.448;2022-07-29T04:05:36;101709.91;;;11.51;100.00
29433;BME280;16405;53.964;13.448;2022-07-29T04:08:01;101707.81;;;11.86;100.00
29433;BME280;16405;53.964;13.448;2022-07-29T04:10:35;101725.13;;;13.08;100.00
29433;BME280;16405;53.964;13.448;2022-07-29T04:13:01;101725.44;;;14.42;94.49
29433;BME280;16405;53.964;13.448;2022-07-29T04:15:27;101726.59;;;15.11;88.21
29433;BME280;16405;53.964;13.448;2022-07-29T04:17:54;101720.03;;;15.01;85.41
29433;BME280;16405;53.964;13.448;2022-07-29T04:20:29;101723.25;;;14.71;86.33
29433;BME280;16405;53.964;13.448;2022-07-29T04:22:55;101722.19;;;14.56;87.59
29433;BME280;16405;53.964;13.448;2022-07-29T04:25:21;101722.91;;;14.41;88.01
29433;BME280;16405;53.964;13.448;2022-07-29T04:27:49;101723.59;;;14.44;89.10
29433;BME280;16405;53.964;13.448;2022-07-29T04:30:34;101730.44;;;14.69;88.80
29433;BME280;16405;53.964;13.448;2022-07-29T04:33:02;101732.69;;;15.13;88.46
29433;BME280;16405;53.964;13.448;2022-07-29T04:35:29;101738.97;;;15.47;86.86
29433;BME280;16405;53.964;13.448;2022-07-29T04:38:04;101735.13;;;16.20;84.41
29433;BME280;16405;53.964;13.448;2022-07-29T04:40:30;101739.72;;;17.28;80.18
29433;BME280;16405;53.964;13.448;2022-07-29T04:42:56;101737.59;;;18.08;77.18
29433;BME280;16405;53.964;13.448;2022-07-29T04:45:22;101749.13;;;19.59;71.89
29433;BME280;16405;53.964;13.448;2022-07-29T04:47:56;101750.16;;;20.96;66.85
29433;BME280;16405;53.964;13.448;2022-07-29T04:50:22;101745.34;;;21.94;63.83
29433;BME280;16405;53.964;13.448;2022-07-29T04:52:48;101749.66;;;23.08;60.48
29433;BME280;16405;53.964;13.448;2022-07-29T04:55:14;101759.09;;;24.07;58.05
29433;BME280;16405;53.964;13.448;2022-07-29T04:57:45;101762.25;;;25.42;54.48
29433;BME280;16405;53.964;13.448;2022-07-29T05:00:11;101771.16;;;26.19;53.05
29433;BME280;16405;53.964;13.448;2022-07-29T05:02:37;101779.88;;;27.32;50.78
29433;BME280;16405;53.964;13.448;2022-07-29T05:05:03;101774.34;;;28.46;50.06
29433;BME280;16405;53.964;13.448;2022-07-29T05:07:29;101769.91;;;28.37;47.88
29433;BME280;16405;53.964;13.448;2022-07-29T05:09:55;101766.44;;;26.58;50.03
29433;BME280;16405;53.964;13.448;2022-07-29T05:12:24;101764.06;;;26.18;51.89
29433;BME280;16405;53.964;13.448;2022-07-29T05:14:51;101762.38;;;25.02;54.19
29433;BME280;16405;53.964;13.448;2022-07-29T05:17:16;101764.75;;;24.04;56.18
29433;BME280;16405;53.964;13.448;2022-07-29T05:19:42;101767.34;;;22.99;59.44
29433;BME280;16405;53.964;13.448;2022-07-29T05:22:08;101762.28;;;21.83;62.22
29433;BME280;16405;53.964;13.448;2022-07-29T05:24:34;101759.88;;;21.91;62.85
29433;BME280;16405;53.964;13.448;2022-07-29T05:27:08;101759.59;;;21.37;64.53
29433;BME280;16405;53.964;13.448;2022-07-29T05:29:35;101760.50;;;22.06;63.82
29433;BME280;16405;53.964;13.448;2022-07-29T05:32:01;101769.78;;;23.02;60.69
29433;BME280;16405;53.964;13.448;2022-07-29T05:34:26;101766.31;;;23.76;58.41
29433;BME280;16405;53.964;13.448;2022-07-29T05:36:58;101764.31;;;24.40;56.66
29433;BME280;16405;53.964;13.448;2022-07-29T05:39:24;101774.00;;;25.70;54.03
29433;BME280;16405;53.964;13.448;2022-07-29T05:41:49;101769.47;;;25.22;54.09
29433;BME280;16405;53.964;13.448;2022-07-29T05:44:15;101770.06;;;25.26;54.87
29433;BME280;16405;53.964;13.448;2022-07-29T05:46:41;101767.31;;;24.96;55.53
29433;BME280;16405;53.964;13.448;2022-07-29T05:49:11;101776.53;;;25.72;53.87
29433;BME280;16405;53.964;13.448;2022-07-29T05:51:37;101778.69;;;25.20;54.77
29433;BME280;16405;53.964;13.448;2022-07-29T05:54:03;101784.34;;;25.75;53.94
29433;BME280;16405;53.964;13.448;2022-07-29T05:56:29;101787.16;;;25.73;53.63
29433;BME280;16405;53.964;13.448;2022-07-29T05:58:54;101780.88;;;26.39;52.23
29433;BME280;16405;53.964;13.448;2022-07-29T06:01:20;101786.56;;;26.92;51.42
29433;BME280;16405;53.964;13.448;2022-07-29T06:03:46;101791.03;;;27.55;50.00
29433;BME280;16405;53.964;13.448;2022-07-29T06:06:17;101785.28;;;28.62;48.21
29433;BME280;16405;53.964;13.448;2022-07-29T06:08:42;101793.72;;;29.35;46.89
29433;BME280;16405;53.964;13.448;2022-07-29T06:11:08;101795.00;;;28.98;45.62
29433;BME280;16405;53.964;13.448;2022-07-29T06:13:34;101791.06;;;27.81;49.02
29433;BME280;16405;53.964;13.448;2022-07-29T06:16:00;101792.91;;;26.83;50.47
29433;BME280;16405;53.964;13.448;2022-07-29T06:18:26;101793.56;;;27.30;49.60
29433;BME280;16405;53.964;13.448;2022-07-29T06:20:57;101785.66;;;26.46;51.91
29433;BME280;16405;53.964;13.448;2022-07-29T06:23:23;101784.91;;;26.63;51.96
29433;BME280;16405;53.964;13.448;2022-07-29T06:25:48;101802.38;;;27.76;49.13
29433;BME280;16405;53.964;13.448;2022-07-29T06:28:14;101797.09;;;27.13;50.33
29433;BME280;16405;53.964;13.448;2022-07-29T06:30:40;101800.81;;;26.84;50.57
29433;BME280;16405;53.964;13.448;2022-07-29T06:33:06;101790.75;;;23.94;55.68
29433;BME280;16405;53.964;13.448;2022-07-29T06:35:37;101788.66;;;23.98;57.99
29433;BME280;16405;53.964;13.448;2022-07-29T06:38:04;101783.13;;;22.92;60.95
29433;BME280;16405;53.964;13.448;2022-07-29T06:40:30;101781.84;;;22.64;61.78
29433;BME280;16405;53.964;13.448;2022-07-29T06:43:22;101784.03;;;22.70;61.81
29433;BME280;16405;53.964;13.448;2022-07-29T06:45:47;101768.19;;;22.56;62.65
29433;BME280;16405;53.964;13.448;2022-07-29T06:48:13;101774.84;;;21.83;63.88
29433;BME280;16405;53.964;13.448;2022-07-29T06:50:39;101771.69;;;22.00;64.00
29433;BME280;16405;53.964;13.448;2022-07-29T06:53:05;101773.41;;;22.01;64.74
29433;BME280;16405;53.964;13.448;2022-07-29T06:55:33;101763.31;;;22.16;64.24
29433;BME280;16405;53.964;13.448;2022-07-29T06:58:02;101761.44;;;21.83;64.67
29433;BME280;16405;53.964;13.448;2022-07-29T07:00:27;101771.84;;;21.99;65.04
29433;BME280;16405;53.964;13.448;2022-07-29T07:02:53;101764.53;;;22.12;64.60
29433;BME280;16405;53.964;13.448;2022-07-29T07:05:19;101762.84;;;22.45;63.80
29433;BME280;16405;53.964;13.448;2022-07-29T07:07:45;101764.78;;;23.09;61.95
29433;BME280;16405;53.964;13.448;2022-07-29T07:10:13;101765.69;;;24.55;58.46
29433;BME280;16405;53.964;13.448;2022-07-29T07:12:41;101752.03;;;26.40;53.42
29433;BME280;16405;53.964;13.448;2022-07-29T07:15:07;101767.81;;;26.07;52.68
29433;BME280;16405;53.964;13.448;2022-07-29T07:17:33;101757.91;;;26.63;51.91
29433;BME280;16405;53.964;13.448;2022-07-29T07:19:59;101769.34;;;27.73;49.58
29433;BME280;16405;53.964;13.448;2022-07-29T07:22:25;101763.59;;;28.62;47.77
29433;BME280;16405;53.964;13.448;2022-07-29T07:24:53;101764.69;;;28.94;46.83
29433;BME280;16405;53.964;13.448;2022-07-29T07:27:21;101775.09;;;30.20;45.41
29433;BME280;16405;53.964;13.448;2022-07-29T07:29:46;101770.25;;;29.91;44.63
29433;BME280;16405;53.964;13.448;2022-07-29T07:32:12;101771.84;;;29.44;44.73
29433;BME280;16405;53.964;13.448;2022-07-29T07:34:39;101759.63;;;28.49;47.32
29433;BME280;16405;53.964;13.448;2022-07-29T07:37:05;101766.22;;;28.04;47.66
29433;BME280;16405;53.964;13.448;2022-07-29T07:39:38;101765.47;;;27.49;48.39
29433;BME280;16405;53.964;13.448;2022-07-29T07:42:04;101766.09;;;27.07;49.33
29433;BME280;16405;53.964;13.448;2022-07-29T07:44:30;101768.81;;;27.25;49.22
29433;BME280;16405;53.964;13.448;2022-07-29T07:46:56;101771.19;;;27.46;48.57
29433;BME280;16405;53.964;13.448;2022-07-29T07:49:21;101776.84;;;28.39;47.20
29433;BME280;16405;53.964;13.448;2022-07-29T07:51:47;101784.72;;;29.18;45.47
29433;BME280;16405;53.964;13.448;2022-07-29T07:54:18;101778.78;;;29.72;43.59
29433;BME280;16405;53.964;13.448;2022-07-29T07:56:44;101777.63;;;29.25;44.46
29433;BME280;16405;53.964;13.448;2022-07-29T07:59:10;101785.41;;;29.85;44.16
29433;BME280;16405;53.964;13.448;2022-07-29T08:01:36;101788.44;;;29.82;44.04
29433;BME280;16405;53.964;13.448;2022-07-29T08:04:01;101780.44;;;28.91;44.60
29433;BME280;16405;53.964;13.448;2022-07-29T08:06:28;101780.78;;;28.45;45.41
29433;BME280;16405;53.964;13.448;2022-07-29T08:08:59;101780.88;;;28.01;46.40
29433;BME280;16405;53.964;13.448;2022-07-29T08:11:25;101776.56;;;28.08;45.76
29433;BME280;16405;53.964;13.448;2022-07-29T08:13:52;101778.72;;;28.05;45.89
29433;BME280;16405;53.964;13.448;2022-07-29T08:16:18;101780.31;;;27.89;46.40
29433;BME280;16405;53.964;13.448;2022-07-29T08:18:47;101782.72;;;27.48;46.14
29433;BME280;16405;53.964;13.448;2022-07-29T08:21:15;101782.88;;;27.47;46.57
29433;BME280;16405;53.964;13.448;2022-07-29T08:23:48;101783.19;;;27.88;45.61
29433;BME280;16405;53.964;13.448;2022-07-29T08:26:21;101777.38;;;27.20;44.68
29433;BME280;16405;53.964;13.448;2022-07-29T08:28:53;101779.38;;;27.18;46.01
29433;BME280;16405;53.964;13.448;2022-07-29T08:31:21;101772.34;;;26.90;46.80
29433;BME280;16405;53.964;13.448;2022-07-29T08:33:47;101771.34;;;26.73;47.84
29433;BME280;16405;53.964;13.448;2022-07-29T08:36:16;101770.19;;;25.53;48.33
29433;BME280;16405;53.964;13.448;2022-07-29T08:38:45;101777.00;;;25.38;48.87
29433;BME280;16405;53.964;13.448;2022-07-29T08:41:12;101759.09;;;25.08;49.77
29433;BME280;16405;53.964;13.448;2022-07-29T08:43:40;101752.44;;;24.42;50.21
29433;BME280;16405;53.964;13.448;2022-07-29T08:46:06;101752.25;;;24.24;50.85
29433;BME280;16405;53.964;13.448;2022-07-29T08:48:38;101751.47;;;24.12;51.51
29433;BME280;16405;53.964;13.448;2022-07-29T08:51:08;101749.41;;;23.74;51.71
29433;BME280;16405;53.964;13.448;2022-07-29T08:53:47;101757.94;;;23.58;51.73
29433;BME280;16405;53.964;13.448;2022-07-29T08:56:18;101743.81;;;23.24;52.55
29433;BME280;16405;53.964;13.448;2022-07-29T08:58:49;101745.63;;;23.55;52.77
29433;BME280;16405;53.964;13.448;2022-07-29T09:01:21;101757.78;;;24.32;51.08
29433;BME280;16405;53.964;13.448;2022-07-29T09:03:50;101753.41;;;24.91;49.62
29433;BME280;16405;53.964;13.448;2022-07-29T09:06:21;101749.75;;;25.41;49.37
29433;BME280;16405;53.964;13.448;2022-07-29T09:08:48;101774.72;;;25.33;47.45
29433;BME280;16405;53.964;13.448;2022-07-29T09:11:14;101754.13;;;25.03;47.47
29433;BME280;16405;53.964;13.448;2022-07-29T09:13:46;101764.22;;;25.60;48.40
29433;BME280;16405;53.964;13.448;2022-07-29T09:16:15;101753.13;;;25.63;47.48
29433;BME280;16405;53.964;13.448;2022-07-29T09:18:49;101756.41;;;26.13;46.45
29433;BME280;16405;53.964;13.448;2022-07-29T09:21:17;101761.28;;;26.37;46.55
29433;BME280;16405;53.964;13.448;2022-07-29T09:24:13;101766.66;;;26.65;44.45
29433;BME280;16405;53.964;13.448;2022-07-29T09:26:48;101768.38;;;26.01;44.03
29433;BME280;16405;53.964;13.448;2022-07-29T09:29:22;101760.34;;;25.72;45.50
29433;BME280;16405;53.964;13.448;2022-07-29T09:31:57;101767.31;;;25.55;45.65
29433;BME280;16405;53.964;13.448;2022-07-29T09:34:26;101765.38;;;25.28;45.76
29433;BME280;16405;53.964;13.448;2022-07-29T09:36:56;101770.19;;;25.24;44.53
29433;BME280;16405;53.964;13.448;2022-07-29T09:39:38;101760.09;;;24.97;46.30
29433;BME280;16405;53.964;13.448;2022-07-29T09:42:15;101761.81;;;25.08;46.96
29433;BME280;16405;53.964;13.448;2022-07-29T09:44:56;101757.16;;;25.20;47.08
29433;BME280;16405;53.964;13.448;2022-07-29T09:47:45;101763.34;;;25.10;46.47
29433;BME280;16405;53.964;13.448;2022-07-29T09:50:16;101757.97;;;25.10;46.62
29433;BME280;16405;53.964;13.448;2022-07-29T09:52:51;101755.09;;;24.83;47.69
29433;BME280;16405;53.964;13.448;2022-07-29T09:55:21;101750.97;;;24.28;48.64
29433;BME280;16405;53.964;13.448;2022-07-29T09:57:48;101751.38;;;24.54;48.34
29433;BME280;16405;53.964;13.448;2022-07-29T10:00:20;101752.94;;;24.57;48.93
29433;BME280;16405;53.964;13.448;2022-07-29T10:02:51;101751.97;;;24.58;49.14
29433;BME280;16405;53.964;13.448;2022-07-29T10:05:28;101750.47;;;24.44;49.42
29433;BME280;16405;53.964;13.448;2022-07-29T10:07:59;101748.47;;;24.36;49.95
29433;BME280;16405;53.964;13.448;2022-07-29T10:10:30;101746.00;;;24.54;50.13
29433;BME280;16405;53.964;13.448;2022-07-29T10:13:06;101730.19;;;24.00;50.07
29433;BME280;16405;53.964;13.448;2022-07-29T10:15:40;101738.41;;;23.98;50.12
29433;BME280;16405;53.964;13.448;2022-07-29T10:18:16;101742.53;;;24.02;50.26
29433;BME280;16405;53.964;13.448;2022-07-29T10:20:48;101736.91;;;24.15;50.14
29433;BME280;16405;53.964;13.448;2022-07-29T10:23:22;101724.97;;;24.08;50.65
29433;BME280;16405;53.964;13.448;2022-07-29T10:25:51;101719.19;;;24.12;50.47
29433;BME280;16405;53.964;13.448;2022-07-29T10:28:17;101721.13;;;24.01;50.52
29433;BME280;16405;53.964;13.448;2022-07-29T10:30:58;101731.97;;;24.20;50.22
29433;BME280;16405;53.964;13.448;2022-07-29T10:36:32;101723.25;;;24.38;50.31
29433;BME280;16405;53.964;13.448;2022-07-29T10:42:11;101716.97;;;23.87;50.54
29433;BME280;16405;53.964;13.448;2022-07-29T10:44:42;101714.91;;;24.00;50.24
29433;BME280;16405;53.964;13.448;2022-07-29T10:47:24;101716.00;;;24.28;49.81
29433;BME280;16405;53.964;13.448;2022-07-29T10:50:03;101715.44;;;24.34;49.78
29433;BME280;16405;53.964;13.448;2022-07-29T10:52:57;101713.09;;;24.51;50.18
29433;BME280;16405;53.964;13.448;2022-07-29T10:55:53;101710.78;;;24.36;50.65
29433;BME280;16405;53.964;13.448;2022-07-29T10:58:22;101703.50;;;24.58;51.08
29433;BME280;16405;53.964;13.448;2022-07-29T11:00:54;101702.00;;;24.44;52.12
29433;BME280;16405;53.964;13.448;2022-07-29T11:03:51;101704.47;;;24.16;48.88
29433;BME280;16405;53.964;13.448;2022-07-29T11:06:24;101697.41;;;24.66;50.28
29433;BME280;16405;53.964;13.448;2022-07-29T11:09:16;101696.00;;;24.21;50.55
29433;BME280;16405;53.964;13.448;2022-07-29T11:11:53;101695.34;;;23.98;50.19
29433;BME280;16405;53.964;13.448;2022-07-29T11:14:57;101689.91;;;23.37;51.36
29433;BME280;16405;53.964;13.448;2022-07-29T11:17:27;101687.50;;;23.64;51.73
29433;BME280;16405;53.964;13.448;2022-07-29T11:23:00;101696.19;;;23.89;50.59
29433;BME280;16405;53.964;13.448;2022-07-29T11:25:26;101686.72;;;23.73;51.26
29433;BME280;16405;53.964;13.448;2022-07-29T11:27:54;101688.66;;;23.83;50.96
29433;BME280;16405;53.964;13.448;2022-07-29T11:30:48;101694.34;;;24.30;51.30
29433;BME280;16405;53.964;13.448;2022-07-29T11:33:31;101685.56;;;23.97;52.25
29433;BME280;16405;53.964;13.448;2022-07-29T11:36:11;101681.09;;;23.77;52.70
29433;BME280;16405;53.964;13.448;2022-07-29T11:38:38;101692.88;;;24.16;51.38
29433;BME280;16405;53.964;13.448;2022-07-29T11:41:26;101679.38;;;23.75;51.48
29433;BME280;16405;53.964;13.448;2022-07-29T11:43:56;101683.69;;;23.88;51.69
29433;BME280;16405;53.964;13.448;2022-07-29T11:46:56;101675.75;;;23.86;52.05
29433;BME280;16405;53.964;13.448;2022-07-29T11:49:25;101678.69;;;24.04;51.62
29433;BME280;16405;53.964;13.448;2022-07-29T11:51:56;101671.78;;;24.21;51.67
29433;BME280;16405;53.964;13.448;2022-07-29T11:54:33;101667.97;;;23.62;52.56
29433;BME280;16405;53.964;13.448;2022-07-29T11:57:00;101665.47;;;24.01;52.82
29433;BME280;16405;53.964;13.448;2022-07-29T11:59:26;101665.53;;;24.11;52.03
29433;BME280;16405;53.964;13.448;2022-07-29T12:02:01;101667.69;;;24.27;51.72
29433;BME280;16405;53.964;13.448;2022-07-29T12:04:27;101677.66;;;24.46;51.76
29433;BME280;16405;53.964;13.448;2022-07-29T12:06:54;101678.19;;;24.40;52.21
29433;BME280;16405;53.964;13.448;2022-07-29T12:09:22;101664.03;;;24.38;52.71
29433;BME280;16405;53.964;13.448;2022-07-29T12:11:57;101657.75;;;23.77;54.24
29433;BME280;16405;53.964;13.448;2022-07-29T12:14:33;101652.38;;;24.18;53.96
29433;BME280;16405;53.964;13.448;2022-07-29T12:17:00;101659.03;;;24.23;54.18
29433;BME280;16405;53.964;13.448;2022-07-29T12:19:26;101654.91;;;24.09;55.23
29433;BME280;16405;53.964;13.448;2022-07-29T12:21:54;101657.16;;;24.04;55.24
29433;BME280;16405;53.964;13.448;2022-07-29T12:24:43;101651.81;;;24.33;54.30
29433;BME280;16405;53.964;13.448;2022-07-29T12:27:09;101650.00;;;24.44;55.31
29433;BME280;16405;53.964;13.448;2022-07-29T12:29:35;101657.00;;;24.85;54.84
29433;BME280;16405;53.964;13.448;2022-07-29T12:32:03;101655.31;;;24.74;54.15
29433;BME280;16405;53.964;13.448;2022-07-29T12:34:33;101660.13;;;25.00;53.86
29433;BME280;16405;53.964;13.448;2022-07-29T12:37:00;101653.59;;;24.83;54.20
29433;BME280;16405;53.964;13.448;2022-07-29T12:39:27;101645.97;;;24.69;54.05
29433;BME280;16405;53.964;13.448;2022-07-29T12:41:53;101652.34;;;24.77;54.31
29433;BME280;16405;53.964;13.448;2022-07-29T12:44:19;101649.06;;;24.74;54.56
29433;BME280;16405;53.964;13.448;2022-07-29T12:47:03;101653.44;;;24.55;55.18
29433;BME280;16405;53.964;13.448;2022-07-29T12:49:29;101644.91;;;24.41;55.67
29433;BME280;16405;53.964;13.448;2022-07-29T12:51:55;101646.94;;;24.68;55.02
29433;BME280;16405;53.964;13.448;2022-07-29T12:54:21;101649.34;;;25.20;54.68
29433;BME280;16405;53.964;13.448;2022-07-29T12:56:47;101660.66;;;25.33;54.03
29433;BME280;16405;53.964;13.448;2022-07-29T12:59:23;101658.72;;;24.67;55.37
29433;BME280;16405;53.964;13.448;2022-07-29T13:01:51;101646.22;;;25.05;53.32
29433;BME280;16405;53.964;13.448;2022-07-29T13:04:32;101655.44;;;25.69;51.52
29433;BME280;16405;53.964;13.448;2022-07-29T13:07:04;101647.56;;;25.85;51.67
29433;BME280;16405;53.964;13.448;2022-07-29T13:09:43;101655.97;;;25.92;51.62
29433;BME280;16405;53.964;13.448;2022-07-29T13:12:12;101664.34;;;26.16;51.83
29433;BME280;16405;53.964;13.448;2022-07-29T13:14:48;101646.84;;;26.21;52.41
29433;BME280;16405;53.964;13.448;2022-07-29T13:17:20;101660.97;;;26.32;52.73